Time;durP1;ratioP1;P1;durP2;ratioP2;P2;SDS_P1;SDS_P2;PMS_P1;PMS_P2;Temp;Humidity;BMP_temperature;BMP_pressure;BME280_temperature;BME280_humidity;BME280_pressure;Samples;Min_cycle;Max_cycle;Signal;HPM_P1;HPM_P2
2022/01/06 00:00:37;;;;;;;4.18;1.85;;;;;;;;;;4828674;29;20046;-84
2022/01/06 00:03:05;;;;;;;3.80;1.50;;;;;;;;;;4853119;29;20060;-84
2022/01/06 00:05:32;;;;;;;5.00;1.80;;;;;;;;;;4830160;29;20418;-84
2022/01/06 00:08:01;;;;;;;3.13;1.25;;;;;;;;;;4838240;29;20049;-84
2022/01/06 00:10:30;;;;;;;3.53;1.50;;;;;;;;;;4836177;29;20078;-84
2022/01/06 00:23:33;;;;;;;4.85;1.77;;;;;;;;;;4838696;29;20152;-84
2022/01/06 00:26:01;;;;;;;3.80;1.70;;;;;;;;;;4840325;29;20042;-84
2022/01/06 00:28:29;;;;;;;6.90;1.65;;;;;;;;;;4839402;29;20128;-84
2022/01/06 00:30:56;;;;;;;4.20;1.55;;;;;;;;;;4832779;29;20411;-84
2022/01/06 00:33:24;;;;;;;3.42;1.63;;;;;;;;;;4821574;29;20054;-84
2022/01/06 00:35:51;;;;;;;4.38;1.33;;;;;;;;;;4821293;29;20046;-84
2022/01/06 00:38:19;;;;;;;9.55;2.35;;;;;;;;;;4821890;29;20050;-84
2022/01/06 00:40:46;;;;;;;6.05;1.45;;;;;;;;;;4821380;29;20038;-84
2022/01/06 00:43:14;;;;;;;4.25;1.50;;;;;;;;;;4823181;29;20054;-84
2022/01/06 00:45:41;;;;;;;4.35;1.65;;;;;;;;;;4824878;29;20130;-84
2022/01/06 00:48:11;;;;;;;3.67;1.55;;;;;;;;;;4809035;29;20133;-84
2022/01/06 00:50:40;;;;;;;5.25;1.50;;;;;;;;;;4827123;29;20054;-84
2022/01/06 00:53:07;;;;;;;5.45;1.70;;;;;;;;;;4842642;29;20050;-84
2022/01/06 00:55:36;;;;;;;4.30;1.63;;;;;;;;;;4838728;29;20058;-84
2022/01/06 00:58:03;;;;;;;3.22;1.77;;;;;;;;;;4824474;29;20078;-84
2022/01/06 01:00:38;;;;;;;2.70;1.55;;;;;;;;;;4824024;29;20109;-84
2022/01/06 01:03:09;;;;;;;4.10;1.50;;;;;;;;;;4824089;29;20095;-84
2022/01/06 01:05:36;;;;;;;7.45;1.75;;;;;;;;;;4823330;29;20039;-84
2022/01/06 01:08:04;;;;;;;2.20;1.20;;;;;;;;;;4808246;29;20047;-84
2022/01/06 01:10:32;;;;;;;2.72;1.23;;;;;;;;;;4830050;24;20071;-90
2022/01/06 01:13:07;;;;;;;3.60;1.50;;;;;;;;;;4798061;29;20078;-91
2022/01/06 01:15:52;;;;;;;6.65;1.85;;;;;;;;;;4806400;29;20050;-91
2022/01/06 01:18:23;;;;;;;5.78;1.85;;;;;;;;;;4791500;29;20146;-90
2022/01/06 01:20:54;;;;;;;4.72;1.70;;;;;;;;;;4811244;29;20065;-90
2022/01/06 01:23:27;;;;;;;4.10;1.50;;;;;;;;;;4794403;29;20062;-90
2022/01/06 01:25:54;;;;;;;4.25;1.50;;;;;;;;;;4818363;29;20045;-89
2022/01/06 01:28:32;;;;;;;5.43;1.65;;;;;;;;;;4776026;29;20058;-90
2022/01/06 01:31:13;;;;;;;3.80;2.00;;;;;;;;;;4782001;29;20095;-90
2022/01/06 01:33:42;;;;;;;2.35;1.38;;;;;;;;;;4825216;29;20070;-90
2022/01/06 01:36:14;;;;;;;3.53;1.73;;;;;;;;;;4823955;29;20158;-90
2022/01/06 01:38:44;;;;;;;4.38;1.80;;;;;;;;;;4794128;29;20059;-90
2022/01/06 01:41:12;;;;;;;3.45;1.70;;;;;;;;;;4803097;29;20074;-90
2022/01/06 01:43:40;;;;;;;5.13;1.80;;;;;;;;;;4810178;29;20070;-90
2022/01/06 01:46:14;;;;;;;5.22;2.10;;;;;;;;;;4795351;29;20078;-90
2022/01/06 01:48:54;;;;;;;3.65;1.58;;;;;;;;;;4806712;29;20059;-90
2022/01/06 01:51:22;;;;;;;2.28;1.58;;;;;;;;;;4790445;29;20137;-89
2022/01/06 01:53:50;;;;;;;3.33;1.40;;;;;;;;;;4804803;29;20047;-89
2022/01/06 01:56:24;;;;;;;2.95;1.70;;;;;;;;;;4782539;29;20059;-90
2022/01/06 01:58:54;;;;;;;3.47;1.90;;;;;;;;;;4775404;29;20058;-90
2022/01/06 02:01:24;;;;;;;5.78;1.80;;;;;;;;;;4805387;29;20142;-90
2022/01/06 02:03:55;;;;;;;5.15;1.90;;;;;;;;;;4805624;29;20047;-89
2022/01/06 02:06:24;;;;;;;2.42;1.73;;;;;;;;;;4799514;29;20118;-90
2022/01/06 02:08:57;;;;;;;3.55;1.85;;;;;;;;;;4809025;29;20057;-90
2022/01/06 02:11:38;;;;;;;2.45;1.17;;;;;;;;;;4808540;29;20055;-90
2022/01/06 02:14:09;;;;;;;2.53;1.50;;;;;;;;;;4823667;29;20146;-90
2022/01/06 02:16:38;;;;;;;4.80;1.67;;;;;;;;;;4808044;29;20047;-90
2022/01/06 02:19:08;;;;;;;6.43;2.00;;;;;;;;;;4800295;29;20046;-90
2022/01/06 02:21:40;;;;;;;2.85;1.55;;;;;;;;;;4781716;29;20055;-91
2022/01/06 02:24:11;;;;;;;3.10;1.80;;;;;;;;;;4801873;29;20059;-90
2022/01/06 02:26:39;;;;;;;3.72;1.42;;;;;;;;;;4824162;29;20053;-90
2022/01/06 02:29:08;;;;;;;3.10;1.77;;;;;;;;;;4823359;29;20061;-90
2022/01/06 02:31:40;;;;;;;5.28;1.52;;;;;;;;;;4807255;29;20503;-90
2022/01/06 02:34:10;;;;;;;2.75;1.60;;;;;;;;;;4822882;29;20114;-90
2022/01/06 02:36:40;;;;;;;5.68;1.80;;;;;;;;;;4799622;29;20133;-90
2022/01/06 02:39:09;;;;;;;5.00;1.60;;;;;;;;;;4807723;29;20136;-90
2022/01/06 02:41:36;;;;;;;3.67;1.70;;;;;;;;;;4811203;29;20049;-90
2022/01/06 02:44:04;;;;;;;3.22;1.50;;;;;;;;;;4804131;29;20085;-91
2022/01/06 02:46:32;;;;;;;6.18;1.65;;;;;;;;;;4796995;29;20149;-90
2022/01/06 02:49:00;;;;;;;2.65;1.27;;;;;;;;;;4789287;29;20117;-89
2022/01/06 02:51:27;;;;;;;2.88;1.33;;;;;;;;;;4803619;29;20071;-90
2022/01/06 02:53:55;;;;;;;4.38;2.00;;;;;;;;;;4804393;29;20073;-90
2022/01/06 02:56:23;;;;;;;5.07;2.15;;;;;;;;;;4792052;29;20046;-90
2022/01/06 02:58:54;;;;;;;4.63;1.80;;;;;;;;;;4826682;29;20074;-90
2022/01/06 03:01:26;;;;;;;4.45;1.63;;;;;;;;;;4821781;29;20050;-90
2022/01/06 03:03:53;;;;;;;2.70;1.70;;;;;;;;;;4821975;29;20111;-90
2022/01/06 03:06:26;;;;;;;6.03;2.20;;;;;;;;;;4830671;29;20050;-89
2022/01/06 03:08:54;;;;;;;3.10;1.50;;;;;;;;;;4810456;29;20107;-90
2022/01/06 03:11:25;;;;;;;3.50;1.80;;;;;;;;;;4801151;29;20040;-90
2022/01/06 03:13:54;;;;;;;3.10;1.52;;;;;;;;;;4801071;29;20044;-88
2022/01/06 03:16:21;;;;;;;5.75;1.98;;;;;;;;;;4804718;29;20098;-90
2022/01/06 03:18:51;;;;;;;3.25;1.50;;;;;;;;;;4792222;29;20332;-90
2022/01/06 03:21:19;;;;;;;4.22;1.85;;;;;;;;;;4812591;29;20047;-90
2022/01/06 03:23:47;;;;;;;6.75;1.95;;;;;;;;;;4788691;29;20054;-90
2022/01/06 03:26:14;;;;;;;6.57;1.90;;;;;;;;;;4803116;29;20047;-90
2022/01/06 03:28:42;;;;;;;3.78;1.70;;;;;;;;;;4803302;29;20046;-89
2022/01/06 03:31:10;;;;;;;6.18;1.98;;;;;;;;;;4824998;24;20150;-68
2022/01/06 03:33:37;;;;;;;5.80;1.88;;;;;;;;;;4835688;24;20060;-86
2022/01/06 03:36:04;;;;;;;5.03;1.85;;;;;;;;;;4841218;29;20060;-86
2022/01/06 03:38:32;;;;;;;2.38;1.88;;;;;;;;;;4843741;29;20093;-86
2022/01/06 03:40:59;;;;;;;3.50;1.92;;;;;;;;;;4834117;29;20133;-86
2022/01/06 03:43:27;;;;;;;3.70;2.22;;;;;;;;;;4806456;29;20130;-86
2022/01/06 03:45:54;;;;;;;6.03;1.95;;;;;;;;;;4822484;29;20047;-86
2022/01/06 03:48:22;;;;;;;4.93;1.80;;;;;;;;;;4822675;29;20073;-86
2022/01/06 03:50:49;;;;;;;5.43;2.08;;;;;;;;;;4796209;29;20130;-86
2022/01/06 03:53:17;;;;;;;5.40;2.10;;;;;;;;;;4839439;29;20042;-86
2022/01/06 03:55:44;;;;;;;4.20;1.50;;;;;;;;;;4824575;29;20053;-86
2022/01/06 03:58:11;;;;;;;5.97;1.85;;;;;;;;;;4808863;29;20054;-86
2022/01/06 04:00:39;;;;;;;5.47;1.95;;;;;;;;;;4838677;29;20133;-87
2022/01/06 04:03:06;;;;;;;5.78;2.10;;;;;;;;;;4824252;29;20045;-87
2022/01/06 04:05:34;;;;;;;4.25;1.73;;;;;;;;;;4836532;29;20117;-86
2022/01/06 04:08:01;;;;;;;3.58;1.88;;;;;;;;;;4820993;29;20054;-86
2022/01/06 04:10:28;;;;;;;6.25;2.00;;;;;;;;;;4805030;29;20140;-86
2022/01/06 04:12:56;;;;;;;3.85;1.80;;;;;;;;;;4805714;29;20495;-86
2022/01/06 04:15:26;;;;;;;2.20;2.00;;;;;;;;;;4820829;29;20125;-87
2022/01/06 04:17:53;;;;;;;6.70;2.40;;;;;;;;;;4807159;29;20480;-87
2022/01/06 04:20:21;;;;;;;9.00;2.08;;;;;;;;;;4809027;29;20053;-86
2022/01/06 04:22:48;;;;;;;4.13;1.70;;;;;;;;;;4824614;29;20082;-86
2022/01/06 04:25:16;;;;;;;8.20;2.05;;;;;;;;;;4825346;29;20056;-86
2022/01/06 04:27:43;;;;;;;6.55;2.83;;;;;;;;;;4842558;29;20041;-86
2022/01/06 04:30:11;;;;;;;4.43;2.35;;;;;;;;;;4842289;29;20529;-86
2022/01/06 04:32:38;;;;;;;4.28;2.22;;;;;;;;;;4823869;29;20150;-86
2022/01/06 04:35:07;;;;;;;2.60;2.38;;;;;;;;;;4824156;29;20125;-87
2022/01/06 04:37:34;;;;;;;3.50;2.20;;;;;;;;;;4825237;29;20050;-87
2022/01/06 04:40:02;;;;;;;5.75;2.50;;;;;;;;;;4824132;29;20050;-86
2022/01/06 04:42:29;;;;;;;5.45;2.70;;;;;;;;;;4811894;29;20053;-84
2022/01/06 04:44:56;;;;;;;6.07;2.53;;;;;;;;;;4843443;29;20106;-83
2022/01/06 04:47:24;;;;;;;5.40;2.42;;;;;;;;;;4826035;29;20061;-86
2022/01/06 04:49:51;;;;;;;2.88;2.33;;;;;;;;;;4825037;29;20050;-87
2022/01/06 04:52:18;;;;;;;10.43;2.60;;;;;;;;;;4823773;29;20051;-86
2022/01/06 04:54:46;;;;;;;7.28;2.50;;;;;;;;;;4824446;29;20114;-86
2022/01/06 04:57:13;;;;;;;4.32;2.35;;;;;;;;;;4809526;29;20422;-85
2022/01/06 04:59:41;;;;;;;5.68;3.00;;;;;;;;;;4842176;29;20052;-86
2022/01/06 05:02:08;;;;;;;6.45;3.08;;;;;;;;;;4826667;29;20077;-86
2022/01/06 05:04:35;;;;;;;7.25;3.10;;;;;;;;;;4842237;29;20058;-86
2022/01/06 05:07:04;;;;;;;4.10;2.40;;;;;;;;;;4812530;29;20058;-86
2022/01/06 05:09:31;;;;;;;4.72;2.25;;;;;;;;;;4823454;29;20046;-86
2022/01/06 05:11:58;;;;;;;5.63;2.92;;;;;;;;;;4822236;29;20671;-86
2022/01/06 05:14:26;;;;;;;5.45;2.40;;;;;;;;;;4843271;29;20092;-86
2022/01/06 05:16:56;;;;;;;4.32;2.53;;;;;;;;;;4826462;29;20061;-87
2022/01/06 05:19:23;;;;;;;5.18;2.60;;;;;;;;;;4842311;29;20080;-87
2022/01/06 05:21:54;;;;;;;3.33;2.28;;;;;;;;;;4813840;29;20120;-86
2022/01/06 05:24:23;;;;;;;4.82;2.90;;;;;;;;;;4823701;29;20054;-86
2022/01/06 05:26:50;;;;;;;4.93;3.10;;;;;;;;;;4820980;29;20058;-86
2022/01/06 05:29:18;;;;;;;3.25;2.45;;;;;;;;;;4826128;29;20065;-86
2022/01/06 05:31:45;;;;;;;4.43;2.63;;;;;;;;;;4830308;29;20054;-87
2022/01/06 05:34:13;;;;;;;6.47;2.47;;;;;;;;;;4808310;29;20054;-86
2022/01/06 05:36:40;;;;;;;8.68;2.83;;;;;;;;;;4808831;29;20050;-83
2022/01/06 05:39:07;;;;;;;6.57;2.60;;;;;;;;;;4809340;29;20545;-83
2022/01/06 05:41:35;;;;;;;6.28;2.92;;;;;;;;;;4822780;29;20058;-86
2022/01/06 05:44:03;;;;;;;6.93;3.08;;;;;;;;;;4823114;29;20050;-86
2022/01/06 05:46:30;;;;;;;7.00;3.13;;;;;;;;;;4824039;29;20065;-86
2022/01/06 05:48:59;;;;;;;6.93;2.80;;;;;;;;;;4823142;29;20075;-86
2022/01/06 05:51:27;;;;;;;5.80;2.60;;;;;;;;;;4823708;29;20050;-86
2022/01/06 05:53:54;;;;;;;3.88;2.63;;;;;;;;;;4822955;29;20043;-86
2022/01/06 05:56:22;;;;;;;7.40;3.13;;;;;;;;;;4832529;29;20053;-86
2022/01/06 05:58:49;;;;;;;6.22;3.58;;;;;;;;;;4841082;29;20046;-86
2022/01/06 06:01:16;;;;;;;5.18;2.33;;;;;;;;;;4832014;29;20146;-87
2022/01/06 06:03:45;;;;;;;6.22;3.17;;;;;;;;;;4823177;29;20088;-86
2022/01/06 06:06:12;;;;;;;4.60;3.10;;;;;;;;;;4814965;29;20046;-86
2022/01/06 06:08:39;;;;;;;3.95;2.83;;;;;;;;;;4842182;29;20072;-83
2022/01/06 06:11:07;;;;;;;5.65;2.92;;;;;;;;;;4841126;29;20077;-84
2022/01/06 06:13:34;;;;;;;9.93;3.58;;;;;;;;;;4841620;29;20052;-83
2022/01/06 06:16:01;;;;;;;3.88;2.85;;;;;;;;;;4819684;29;20046;-83
2022/01/06 06:18:29;;;;;;;4.95;3.30;;;;;;;;;;4808380;29;20078;-83
2022/01/06 06:20:56;;;;;;;6.13;3.30;;;;;;;;;;4799078;29;20422;-83
2022/01/06 06:23:24;;;;;;;8.90;3.70;;;;;;;;;;4842182;29;20068;-85
2022/01/06 06:25:51;;;;;;;4.28;3.55;;;;;;;;;;4841076;29;20650;-83
2022/01/06 06:28:19;;;;;;;4.68;3.60;;;;;;;;;;4826273;29;20527;-83
2022/01/06 06:30:46;;;;;;;5.55;3.60;;;;;;;;;;4841780;29;20069;-83
2022/01/06 06:33:13;;;;;;;7.50;3.55;;;;;;;;;;4826028;29;20348;-85
2022/01/06 06:35:41;;;;;;;7.30;4.43;;;;;;;;;;4826262;29;20582;-84
2022/01/06 06:38:08;;;;;;;3.63;3.00;;;;;;;;;;4841388;29;20768;-83
2022/01/06 06:40:35;;;;;;;5.53;3.40;;;;;;;;;;4840423;29;20041;-84
2022/01/06 06:43:03;;;;;;;7.60;3.88;;;;;;;;;;4841231;29;20518;-83
2022/01/06 06:45:30;;;;;;;6.60;4.35;;;;;;;;;;4825700;29;20445;-83
2022/01/06 06:47:57;;;;;;;6.97;3.95;;;;;;;;;;4826305;29;20156;-83
2022/01/06 06:50:25;;;;;;;3.60;3.30;;;;;;;;;;4825576;29;20141;-83
2022/01/06 06:52:52;;;;;;;8.57;4.22;;;;;;;;;;4838136;29;20551;-83
2022/01/06 06:55:19;;;;;;;8.82;3.75;;;;;;;;;;4807846;29;20149;-84
2022/01/06 06:57:47;;;;;;;6.63;3.92;;;;;;;;;;4824360;29;20077;-84
2022/01/06 07:00:14;;;;;;;5.13;2.88;;;;;;;;;;4807646;29;20500;-84
2022/01/06 07:02:42;;;;;;;7.00;3.83;;;;;;;;;;4824057;29;20129;-83
2022/01/06 07:05:10;;;;;;;6.82;3.55;;;;;;;;;;4792684;29;20141;-84
2022/01/06 07:07:37;;;;;;;4.60;3.13;;;;;;;;;;4826265;29;20567;-84
2022/01/06 07:10:05;;;;;;;4.97;3.65;;;;;;;;;;4862036;23;20110;-71
2022/01/06 07:12:32;;;;;;;5.25;3.65;;;;;;;;;;4819890;29;20145;-75
2022/01/06 07:15:02;;;;;;;6.18;3.95;;;;;;;;;;4820300;29;20051;-73
2022/01/06 07:17:29;;;;;;;6.13;3.53;;;;;;;;;;4838510;29;20491;-73
2022/01/06 07:19:57;;;;;;;4.95;3.70;;;;;;;;;;4837861;29;20077;-73
2022/01/06 07:22:24;;;;;;;8.02;3.80;;;;;;;;;;4820771;29;20054;-73
2022/01/06 07:24:52;;;;;;;4.65;3.38;;;;;;;;;;4820542;29;20137;-74
2022/01/06 07:27:19;;;;;;;7.65;3.97;;;;;;;;;;4836968;29;20495;-73
2022/01/06 07:29:46;;;;;;;6.30;3.58;;;;;;;;;;4828043;29;20491;-73
2022/01/06 07:32:14;;;;;;;5.30;3.65;;;;;;;;;;4817129;29;20042;-73
2022/01/06 07:34:41;;;;;;;7.40;3.90;;;;;;;;;;4820843;29;20141;-72
2022/01/06 07:37:09;;;;;;;5.30;3.60;;;;;;;;;;4835249;29;20046;-73
2022/01/06 07:39:36;;;;;;;5.03;2.70;;;;;;;;;;4837030;29;20058;-74
2022/01/06 07:42:04;;;;;;;6.47;3.17;;;;;;;;;;4836132;29;20142;-74
2022/01/06 07:44:32;;;;;;;4.97;3.35;;;;;;;;;;4838619;29;20050;-73
2022/01/06 07:47:00;;;;;;;5.22;3.00;;;;;;;;;;4837090;29;20057;-73
2022/01/06 07:49:29;;;;;;;6.50;2.60;;;;;;;;;;4838175;29;20050;-73
2022/01/06 07:51:56;;;;;;;6.70;3.70;;;;;;;;;;4836886;29;20072;-73
2022/01/06 07:54:24;;;;;;;4.43;3.47;;;;;;;;;;4838045;29;20464;-73
2022/01/06 07:56:51;;;;;;;6.05;3.15;;;;;;;;;;4837998;29;20133;-72
2022/01/06 07:59:18;;;;;;;4.93;3.28;;;;;;;;;;4838104;29;20046;-73
2022/01/06 08:01:46;;;;;;;7.95;3.95;;;;;;;;;;4837544;29;20398;-73
2022/01/06 08:04:13;;;;;;;5.80;2.95;;;;;;;;;;4837829;29;20049;-73
2022/01/06 08:06:41;;;;;;;3.92;3.00;;;;;;;;;;4838003;29;20129;-73
2022/01/06 08:09:08;;;;;;;3.67;2.72;;;;;;;;;;4837990;29;20133;-74
2022/01/06 08:11:35;;;;;;;5.53;3.55;;;;;;;;;;4836916;29;20064;-73
2022/01/06 08:14:03;;;;;;;5.07;3.65;;;;;;;;;;4838005;29;20606;-73
2022/01/06 08:16:30;;;;;;;8.18;5.15;;;;;;;;;;4838155;29;20056;-72
2022/01/06 08:18:58;;;;;;;5.82;3.78;;;;;;;;;;4838425;29;20103;-73
2022/01/06 08:21:25;;;;;;;6.40;4.72;;;;;;;;;;4837235;29;20099;-73
2022/01/06 08:23:52;;;;;;;7.72;4.10;;;;;;;;;;4838079;29;20438;-71
2022/01/06 08:26:20;;;;;;;5.88;3.85;;;;;;;;;;4837821;29;20053;-74
2022/01/06 08:28:47;;;;;;;5.38;4.47;;;;;;;;;;4837807;29;20128;-72
2022/01/06 08:31:18;;;;;;;6.40;3.90;;;;;;;;;;4828697;29;20048;-72
2022/01/06 08:33:46;;;;;;;7.95;3.83;;;;;;;;;;4819289;29;20046;-73
2022/01/06 08:36:13;;;;;;;4.10;3.05;;;;;;;;;;4817009;29;20570;-73
2022/01/06 08:38:41;;;;;;;3.50;2.78;;;;;;;;;;4850306;29;20136;-74
2022/01/06 08:41:08;;;;;;;6.20;3.67;;;;;;;;;;4824181;29;20137;-73
2022/01/06 08:43:36;;;;;;;3.42;2.92;;;;;;;;;;4836813;29;20528;-73
2022/01/06 08:46:04;;;;;;;6.00;3.50;;;;;;;;;;4837199;29;20148;-72
2022/01/06 08:48:31;;;;;;;6.05;3.65;;;;;;;;;;4837988;29;20074;-73
2022/01/06 08:50:58;;;;;;;6.35;3.67;;;;;;;;;;4830683;29;20046;-73
2022/01/06 08:53:26;;;;;;;7.60;4.20;;;;;;;;;;4819137;29;20056;-75
2022/01/06 08:55:53;;;;;;;5.20;3.25;;;;;;;;;;4819303;29;20074;-75
2022/01/06 08:58:21;;;;;;;4.18;2.92;;;;;;;;;;4819057;29;20103;-72
2022/01/06 09:00:48;;;;;;;5.00;3.50;;;;;;;;;;4818615;29;20380;-74
2022/01/06 09:03:16;;;;;;;4.63;3.55;;;;;;;;;;4819613;29;20614;-74
2022/01/06 09:05:43;;;;;;;6.50;4.13;;;;;;;;;;4826891;29;20063;-73
2022/01/06 09:08:11;;;;;;;5.45;4.18;;;;;;;;;;4840983;29;20046;-74
2022/01/06 09:10:38;;;;;;;8.35;3.70;;;;;;;;;;4833639;29;20054;-73
2022/01/06 09:13:25;;;;;;;5.38;2.97;;;;;;;;;;4821426;29;20112;-72
2022/01/06 09:15:54;;;;;;;4.35;3.50;;;;;;;;;;4821717;29;20046;-73
2022/01/06 09:18:22;;;;;;;4.10;3.70;;;;;;;;;;4822695;29;20515;-72
2022/01/06 09:20:49;;;;;;;5.07;3.67;;;;;;;;;;4832663;29;20521;-73
2022/01/06 09:23:17;;;;;;;4.97;3.50;;;;;;;;;;4818314;29;20054;-74
2022/01/06 09:25:44;;;;;;;6.43;3.72;;;;;;;;;;4821503;29;20122;-73
2022/01/06 09:28:12;;;;;;;5.25;3.65;;;;;;;;;;4809932;29;20385;-74
2022/01/06 09:30:39;;;;;;;6.65;3.50;;;;;;;;;;4835219;29;20159;-74
2022/01/06 09:33:06;;;;;;;6.15;4.35;;;;;;;;;;4844836;29;20248;-74
2022/01/06 09:35:34;;;;;;;6.93;3.88;;;;;;;;;;4852066;29;20051;-73
2022/01/06 09:38:01;;;;;;;3.92;3.53;;;;;;;;;;4819112;29;20062;-73
2022/01/06 09:40:29;;;;;;;5.00;3.70;;;;;;;;;;4823765;29;20050;-73
2022/01/06 09:42:56;;;;;;;4.10;3.63;;;;;;;;;;4837411;29;20118;-73
2022/01/06 09:45:28;;;;;;;3.60;3.22;;;;;;;;;;4839731;29;20140;-71
2022/01/06 09:47:55;;;;;;;;;;;;;;;;;;4856888;29;20126;-72
2022/01/06 09:50:23;;;;;;;6.03;4.45;;;;;;;;;;4854327;29;20034;-73
2022/01/06 09:52:52;;;;;;;7.35;3.63;;;;;;;;;;4839586;29;20050;-73
2022/01/06 09:55:21;;;;;;;5.90;4.47;;;;;;;;;;4837235;29;20042;-73
2022/01/06 09:57:57;;;;;;;4.70;3.55;;;;;;;;;;4837075;29;20054;-73
2022/01/06 10:00:25;;;;;;;5.25;4.00;;;;;;;;;;4806963;29;20586;-69
2022/01/06 10:02:53;;;;;;;10.80;5.05;;;;;;;;;;4803990;29;20644;-73
2022/01/06 10:05:21;;;;;;;5.57;4.32;;;;;;;;;;4803982;29;20046;-73
2022/01/06 10:07:49;;;;;;;7.60;4.70;;;;;;;;;;4804323;29;20043;-74
2022/01/06 10:10:16;;;;;;;7.78;4.68;;;;;;;;;;4802855;29;20070;-74
2022/01/06 10:12:54;;;;;;;3.58;3.00;;;;;;;;;;4803961;29;20046;-74
2022/01/06 10:15:23;;;;;;;4.63;3.20;;;;;;;;;;4814802;29;20051;-73
2022/01/06 10:17:50;;;;;;;6.53;4.07;;;;;;;;;;4811499;29;20518;-73
2022/01/06 10:20:20;;;;;;;7.03;3.45;;;;;;;;;;4821569;29;20511;-73
2022/01/06 10:22:49;;;;;;;5.40;3.30;;;;;;;;;;4802131;29;20127;-73
2022/01/06 10:25:17;;;;;;;3.15;2.80;;;;;;;;;;4804309;29;20061;-74
2022/01/06 10:27:46;;;;;;;6.00;3.40;;;;;;;;;;4820783;29;20061;-74
2022/01/06 10:30:14;;;;;;;5.05;3.58;;;;;;;;;;4850396;29;20084;-74
2022/01/06 10:32:42;;;;;;;5.40;3.75;;;;;;;;;;4821604;29;20077;-75
2022/01/06 10:35:11;;;;;;;4.40;3.20;;;;;;;;;;4822122;29;20047;-75
2022/01/06 10:37:42;;;;;;;3.25;2.80;;;;;;;;;;4803717;29;20410;-75
2022/01/06 10:40:10;;;;;;;4.32;3.30;;;;;;;;;;4803473;29;20065;-74
2022/01/06 10:42:42;;;;;;;4.10;2.83;;;;;;;;;;4821799;29;20598;-74
2022/01/06 10:45:15;;;;;;;5.93;3.50;;;;;;;;;;4817928;29;20046;-74
2022/01/06 10:47:47;;;;;;;4.68;2.75;;;;;;;;;;4807122;29;20050;-75
2022/01/06 10:50:20;;;;;;;7.47;4.05;;;;;;;;;;4838673;29;20060;-74
2022/01/06 10:52:51;;;;;;;7.07;3.38;;;;;;;;;;4839614;29;20071;-74
2022/01/06 10:55:20;;;;;;;4.60;2.83;;;;;;;;;;4840456;29;20388;-73
2022/01/06 10:57:53;;;;;;;5.30;3.65;;;;;;;;;;4840318;29;20067;-74
2022/01/06 11:00:22;;;;;;;4.80;3.55;;;;;;;;;;4839620;29;20134;-74
2022/01/06 11:02:49;;;;;;;4.68;3.38;;;;;;;;;;4839666;29;20188;-73
2022/01/06 11:05:17;;;;;;;5.38;3.20;;;;;;;;;;4838530;29;20081;-73
2022/01/06 11:07:44;;;;;;;8.85;3.65;;;;;;;;;;4821982;29;20510;-73
2022/01/06 11:10:19;;;;;;;6.28;3.72;;;;;;;;;;4821107;29;20155;-73
2022/01/06 11:12:46;;;;;;;4.03;2.80;;;;;;;;;;4820920;29;20050;-73
2022/01/06 11:15:14;;;;;;;5.10;3.03;;;;;;;;;;4823640;29;20123;-74
2022/01/06 11:17:45;;;;;;;7.85;4.03;;;;;;;;;;4822586;29;20121;-75
2022/01/06 11:20:25;;;;;;;4.50;3.08;;;;;;;;;;4821706;29;20099;-74
2022/01/06 11:22:53;;;;;;;5.55;3.90;;;;;;;;;;4815337;29;20038;-73
2022/01/06 11:25:35;;;;;;;2.95;2.30;;;;;;;;;;4818255;29;20107;-77
2022/01/06 11:28:06;;;;;;;3.97;2.63;;;;;;;;;;4820851;29;20050;-74
2022/01/06 11:30:41;;;;;;;6.30;3.63;;;;;;;;;;4828830;29;20138;-73
2022/01/06 11:33:09;;;;;;;5.40;3.28;;;;;;;;;;4819758;29;20042;-74
2022/01/06 11:35:49;;;;;;;4.10;2.92;;;;;;;;;;4819394;29;20503;-73
2022/01/06 11:38:19;;;;;;;4.55;2.95;;;;;;;;;;4820535;29;20141;-73
2022/01/06 11:40:50;;;;;;;6.45;2.88;;;;;;;;;;4824665;29;20129;-73
2022/01/06 11:43:18;;;;;;;4.10;2.63;;;;;;;;;;4838372;29;20106;-75
2022/01/06 11:45:59;;;;;;;6.03;3.25;;;;;;;;;;4832516;29;20047;-72
2022/01/06 11:48:27;;;;;;;6.32;2.78;;;;;;;;;;4818690;29;20042;-72
2022/01/06 11:50:54;;;;;;;4.22;3.10;;;;;;;;;;4819083;29;20064;-73
2022/01/06 11:53:30;;;;;;;6.03;3.47;;;;;;;;;;4819557;29;20535;-73
2022/01/06 11:55:59;;;;;;;4.18;2.60;;;;;;;;;;4825797;29;20136;-73
2022/01/06 11:58:26;;;;;;;8.05;3.05;;;;;;;;;;4834048;29;20054;-73
2022/01/06 12:01:00;;;;;;;4.30;2.97;;;;;;;;;;4817215;29;20053;-73
2022/01/06 12:03:54;;;;;;;3.72;2.92;;;;;;;;;;4818435;29;20308;-73
2022/01/06 12:06:24;;;;;;;7.05;3.40;;;;;;;;;;4817711;29;20078;-73
2022/01/06 12:08:52;;;;;;;4.28;2.95;;;;;;;;;;4822553;29;20114;-72
2022/01/06 12:11:21;;;;;;;7.65;3.83;;;;;;;;;;4826759;29;20042;-74
2022/01/06 12:13:50;;;;;;;10.50;3.40;;;;;;;;;;4835937;29;20511;-76
2022/01/06 12:16:44;;;;;;;7.10;2.75;;;;;;;;;;4853794;29;20102;-75
2022/01/06 12:19:15;;;;;;;4.35;2.47;;;;;;;;;;4829399;29;20594;-75
2022/01/06 12:21:43;;;;;;;2.88;2.22;;;;;;;;;;4816378;29;20165;-72
2022/01/06 12:24:11;;;;;;;5.65;2.70;;;;;;;;;;4818907;29;20046;-74
2022/01/06 12:26:39;;;;;;;2.92;2.50;;;;;;;;;;4818503;29;20057;-75
2022/01/06 12:29:25;;;;;;;3.53;2.45;;;;;;;;;;4846586;29;20050;-74
2022/01/06 12:32:02;;;;;;;6.72;2.47;;;;;;;;;;4851514;29;20053;-76
2022/01/06 12:34:29;;;;;;;5.93;3.55;;;;;;;;;;4837178;29;20166;-73
2022/01/06 12:36:57;;;;;;;2.85;2.38;;;;;;;;;;4823331;29;20403;-75
2022/01/06 12:39:24;;;;;;;6.05;3.40;;;;;;;;;;4820187;29;20052;-73
2022/01/06 12:41:52;;;;;;;4.82;2.92;;;;;;;;;;4821619;29;20081;-72
2022/01/06 12:44:25;;;;;;;6.32;3.28;;;;;;;;;;4822028;29;20298;-74
2022/01/06 12:46:52;;;;;;;6.82;2.50;;;;;;;;;;4822500;29;20563;-74
2022/01/06 12:49:23;;;;;;;8.88;3.60;;;;;;;;;;4821560;29;20132;-74
2022/01/06 12:51:53;;;;;;;6.50;3.30;;;;;;;;;;4852874;29;20120;-73
2022/01/06 12:54:22;;;;;;;8.90;4.30;;;;;;;;;;4820823;29;20468;-74
2022/01/06 12:56:54;;;;;;;11.55;3.92;;;;;;;;;;4834701;29;20046;-73
2022/01/06 12:59:37;;;;;;;8.10;4.05;;;;;;;;;;4831673;29;20057;-73
2022/01/06 13:02:06;;;;;;;5.00;3.38;;;;;;;;;;4821035;29;20415;-73
2022/01/06 13:04:35;;;;;;;5.78;3.60;;;;;;;;;;4821328;29;20062;-73
2022/01/06 13:07:04;;;;;;;6.80;3.88;;;;;;;;;;4835874;29;20054;-73
2022/01/06 13:09:33;;;;;;;7.88;4.72;;;;;;;;;;4831940;29;20514;-72
2022/01/06 13:12:02;;;;;;;6.60;2.92;;;;;;;;;;4819947;29;20049;-73
2022/01/06 13:14:34;;;;;;;4.18;2.50;;;;;;;;;;4821891;29;20042;-74
2022/01/06 13:17:06;;;;;;;7.40;3.55;;;;;;;;;;4828419;29;20491;-73
2022/01/06 13:19:35;;;;;;;8.18;5.50;;;;;;;;;;4813131;29;20042;-72
2022/01/06 13:22:05;;;;;;;11.50;5.75;;;;;;;;;;4821180;29;20137;-73
2022/01/06 13:24:35;;;;;;;6.47;3.80;;;;;;;;;;4824671;29;20051;-74
2022/01/06 13:27:08;;;;;;;5.22;2.75;;;;;;;;;;4820889;29;20077;-74
2022/01/06 13:29:36;;;;;;;8.23;3.75;;;;;;;;;;4821753;29;20074;-73
2022/01/06 13:32:11;;;;;;;8.45;3.90;;;;;;;;;;4836877;29;20050;-74
2022/01/06 13:34:41;;;;;;;7.63;3.30;;;;;;;;;;4841007;29;20050;-73
2022/01/06 13:37:10;;;;;;;7.68;4.60;;;;;;;;;;4825551;29;20050;-74
2022/01/06 13:39:46;;;;;;;6.72;2.97;;;;;;;;;;4823032;29;20050;-73
2022/01/06 13:42:26;;;;;;;2.17;1.42;;;;;;;;;;4806771;29;20049;-73
2022/01/06 13:44:59;;;;;;;4.68;1.55;;;;;;;;;;4823263;29;20145;-74
2022/01/06 13:53:23;;;;;;;5.40;2.42;;;;;;;;;;4801382;29;20051;-73
2022/01/06 13:55:56;;;;;;;12.95;7.93;;;;;;;;;;4798200;29;20083;-74
2022/01/06 13:58:24;;;;;;;7.65;5.00;;;;;;;;;;4782450;30;20082;-74
2022/01/06 14:00:52;;;;;;;4.07;2.10;;;;;;;;;;4788505;29;20057;-74
2022/01/06 14:03:27;;;;;;;1.20;0.88;;;;;;;;;;4791781;29;20055;-73
2022/01/06 14:05:54;;;;;;;1.75;1.00;;;;;;;;;;4782198;29;20055;-74
2022/01/06 14:08:22;;;;;;;3.65;1.95;;;;;;;;;;4779224;30;20087;-72
2022/01/06 14:10:49;;;;;;;1.45;0.63;;;;;;;;;;4781257;29;20407;-75
2022/01/06 14:13:16;;;;;;;1.35;0.70;;;;;;;;;;4779499;30;20112;-78
2022/01/06 14:15:45;;;;;;;1.08;0.90;;;;;;;;;;4783583;29;20053;-78
2022/01/06 14:18:13;;;;;;;1.33;1.10;;;;;;;;;;4782252;30;20039;-76
2022/01/06 14:20:41;;;;;;;1.27;1.17;;;;;;;;;;4799910;29;20077;-75
2022/01/06 14:23:09;;;;;;;1.33;1.30;;;;;;;;;;4834146;29;20062;-77
2022/01/06 14:25:36;;;;;;;2.35;1.63;;;;;;;;;;4833629;29;20137;-77
2022/01/06 14:28:06;;;;;;;2.55;1.95;;;;;;;;;;4803896;29;20050;-76
2022/01/06 14:30:33;;;;;;;1.85;1.58;;;;;;;;;;4819484;29;20042;-75
2022/01/06 14:33:01;;;;;;;2.20;1.67;;;;;;;;;;4818050;29;20050;-75
2022/01/06 14:35:28;;;;;;;2.38;1.02;;;;;;;;;;4819250;29;20237;-76
2022/01/06 14:37:56;;;;;;;1.40;1.30;;;;;;;;;;4818745;29;20446;-75
2022/01/06 14:40:23;;;;;;;1.63;1.30;;;;;;;;;;4812471;29;20050;-77
2022/01/06 14:43:08;;;;;;;2.20;0.98;;;;;;;;;;4817477;29;20110;-75
2022/01/06 14:45:36;;;;;;;3.15;1.10;;;;;;;;;;4821095;29;20053;-76
2022/01/06 14:48:04;;;;;;;0.90;0.82;;;;;;;;;;4819673;29;20050;-75
2022/01/06 14:50:31;;;;;;;4.15;1.30;;;;;;;;;;4819175;29;20077;-76
2022/01/06 14:52:58;;;;;;;1.17;1.10;;;;;;;;;;4819443;29;20069;-75
2022/01/06 14:55:26;;;;;;;1.73;1.35;;;;;;;;;;4821585;29;20435;-75
2022/01/06 14:57:54;;;;;;;1.98;1.35;;;;;;;;;;4820020;29;20077;-76
2022/01/06 15:00:21;;;;;;;2.20;1.70;;;;;;;;;;4821404;29;20074;-75
2022/01/06 15:02:48;;;;;;;9.07;2.03;;;;;;;;;;4837785;29;20045;-77
2022/01/06 15:05:17;;;;;;;2.70;1.85;;;;;;;;;;4836978;29;20054;-76
2022/01/06 15:07:45;;;;;;;1.52;1.42;;;;;;;;;;4819628;29;20088;-76
2022/01/06 15:10:13;;;;;;;3.40;3.05;;;;;;;;;;4817656;29;20124;-78